Terminal Aerodrome Forecast
Issued by NWS

Home | Current Version | Previous Version | Text Only | Print | Product List | Glossary On
Versions: 1 2 3 4 5 6 7 8 9 10 11 12 13 14
000
FTUS43 KPAH 011404 AAA
TAFCGI
TAF AMD
KCGI 011404Z 0114/0212 25005KT P6SM -SHRA SCT012 OVC100
      TEMPO 0115/0118 4SM SHRA BR BKN012
     FM011800 20007KT P6SM VCSH SCT040 BKN100
     FM020000 19005KT 6SM -SHRA BKN100 PROB30 0200/0206 TS BKN060CB
     FM020600 20007KT 3SM SHRA OVC030 PROB30 0206/0212 1SM TSRA
      OVC010CB=

USA.gov is the U.S. government's official web portal to all federal, state and local government web resources and services.